Mvs Toralla — SM025 — position and weather

sailwx.info

Track history (hours):
 
Tides and Currents Weather Stations Pressure Air Temp Water Temp Dewpoint Dewpoint Depression Visibility Wind Speed Wind Dir Waves Ship Positions

Mvs Toralla

Last reported at 2018-Mar-23 13:09 UTC. Time now 2018-Aug-14 06:58 UTC.
Position S 29°24' E 031°34'.
Warning: this ship's position is months out of date.

Length 53 m; draft 4 m.

Type: Fishing. MMSI: 666459000.

Date/timePositionNaut miles runAvg speedWind from/ knotsBaromVisibWave heightAir tempDewpointWater temp
2018-Mar-23 13:09S 29°24' E 031°34'1 8.5
2018-Mar-23 13:00S 29°25' E 031°33'4 8.5
2018-Mar-23 12:30S 29°28' E 031°30'4 8.6
2018-Mar-23 12:00S 29°32' E 031°28'4 8.6
2018-Mar-23 11:30S 29°35' E 031°24'4 8.7
2018-Mar-23 11:01S 29°38' E 031°21'4 8.8
2018-Mar-23 10:30S 29°42' E 031°18'5 8.9
2018-Mar-23 10:00S 29°45' E 031°14'3 7.1
2018-Mar-23 09:30S 29°47' E 031°11'0 0.6
2018-Mar-23 09:01S 29°47' E 031°11'0 0.8
2018-Mar-23 08:30S 29°47' E 031°11'1 1.7
2018-Mar-23 08:01S 29°47' E 031°12'0 0.5
2018-Mar-23 07:30S 29°47' E 031°12'1 2.9
2018-Mar-23 07:00S 29°47' E 031°14'2 3.1
2018-Mar-23 06:30S 29°45' E 031°15'2 4.6
2018-Mar-23 06:00S 29°43' E 031°15'2 4.3
2018-Mar-23 05:31S 29°41' E 031°16'0 0.4
2018-Mar-23 05:01S 29°41' E 031°16'0 0.9
2018-Mar-23 04:30S 29°41' E 031°16'0 0.9
2018-Mar-23 04:00S 29°42' E 031°16'0 0.8
2018-Mar-23 03:30S 29°42' E 031°16'0 1.0
2018-Mar-23 03:00S 29°42' E 031°16'1 1.1
2018-Mar-23 02:30S 29°43' E 031°16'1 2.9
2018-Mar-23 02:00S 29°42' E 031°15'2 3.7
2018-Mar-23 01:30S 29°40' E 031°15'0 0.9
2018-Mar-23 01:00S 29°40' E 031°15'0 0.9
2018-Mar-23 00:30S 29°41' E 031°15'1 1.0
2018-Mar-23 00:00S 29°41' E 031°15'1 1.1
2018-Mar-22 23:30S 29°42' E 031°15'1 1.1
2018-Mar-22 23:01S 29°42' E 031°15'1 1.1
2018-Mar-22 22:30S 29°43' E 031°15'1 3.0
2018-Mar-22 22:00S 29°44' E 031°15'1 2.8
2018-Mar-22 21:30S 29°46' E 031°14'2 4.8
2018-Mar-22 21:00S 29°47' E 031°12'1 2.9
2018-Mar-22 20:31S 29°47' E 031°10'0 0.4
2018-Mar-22 20:00S 29°47' E 031°11'0 0.7
2018-Mar-22 19:30S 29°47' E 031°10'1 2.1
2018-Mar-22 19:01S 29°46' E 031°09'2 3.6
2018-Mar-22 18:31S 29°45' E 031°08'1 1.3
2018-Mar-22 18:00S 29°45' E 031°07'1 1.6
2018-Mar-22 17:31S 29°45' E 031°07'2 4.2
2018-Mar-22 17:01S 29°47' E 031°08'2 5.0
2018-Mar-22 16:31S 29°49' E 031°07'5 9.3
2018-Mar-22 16:00S 29°54' E 031°06'4 8.5
2018-Mar-22 15:31S 29°57' E 031°03'4 8.0
2018-Mar-22 15:00S 30°01' E 031°01'4 7.7
2018-Mar-22 14:31S 30°05' E 030°60'4 7.5
2018-Mar-22 14:00S 30°08' E 030°58'  
Track history (hours):
 
Tides and Currents Weather Stations Pressure Air Temp Water Temp Dewpoint Dewpoint Depression Visibility Wind Speed Wind Dir Waves Ship Positions

Mvs Toralla

Last reported at 2018-Mar-23 13:09 UTC. Time now 2018-Aug-14 06:58 UTC.
Position S 29°24' E 031°34'.
Warning: this ship's position is months out of date.

Length 53 m; draft 4 m.

Type: Fishing. MMSI: 666459000.

Date/timePositionNaut miles runAvg speedWind from/ knotsBaromVisibWave heightAir tempDewpointWater temp
2018-Mar-23 13:09S 29°24' E 031°34'1 8.5
2018-Mar-23 13:00S 29°25' E 031°33'4 8.5
2018-Mar-23 12:30S 29°28' E 031°30'4 8.6
2018-Mar-23 12:00S 29°32' E 031°28'4 8.6
2018-Mar-23 11:30S 29°35' E 031°24'4 8.7
2018-Mar-23 11:01S 29°38' E 031°21'4 8.8
2018-Mar-23 10:30S 29°42' E 031°18'5 8.9
2018-Mar-23 10:00S 29°45' E 031°14'3 7.1
2018-Mar-23 09:30S 29°47' E 031°11'0 0.6
2018-Mar-23 09:01S 29°47' E 031°11'0 0.8
2018-Mar-23 08:30S 29°47' E 031°11'1 1.7
2018-Mar-23 08:01S 29°47' E 031°12'0 0.5
2018-Mar-23 07:30S 29°47' E 031°12'1 2.9
2018-Mar-23 07:00S 29°47' E 031°14'2 3.1
2018-Mar-23 06:30S 29°45' E 031°15'2 4.6
2018-Mar-23 06:00S 29°43' E 031°15'2 4.3
2018-Mar-23 05:31S 29°41' E 031°16'0 0.4
2018-Mar-23 05:01S 29°41' E 031°16'0 0.9
2018-Mar-23 04:30S 29°41' E 031°16'0 0.9
2018-Mar-23 04:00S 29°42' E 031°16'0 0.8
2018-Mar-23 03:30S 29°42' E 031°16'0 1.0
2018-Mar-23 03:00S 29°42' E 031°16'1 1.1
2018-Mar-23 02:30S 29°43' E 031°16'1 2.9
2018-Mar-23 02:00S 29°42' E 031°15'2 3.7
2018-Mar-23 01:30S 29°40' E 031°15'0 0.9
2018-Mar-23 01:00S 29°40' E 031°15'0 0.9
2018-Mar-23 00:30S 29°41' E 031°15'1 1.0
2018-Mar-23 00:00S 29°41' E 031°15'1 1.1
2018-Mar-22 23:30S 29°42' E 031°15'1 1.1
2018-Mar-22 23:01S 29°42' E 031°15'1 1.1
2018-Mar-22 22:30S 29°43' E 031°15'1 3.0
2018-Mar-22 22:00S 29°44' E 031°15'1 2.8
2018-Mar-22 21:30S 29°46' E 031°14'2 4.8
2018-Mar-22 21:00S 29°47' E 031°12'1 2.9
2018-Mar-22 20:31S 29°47' E 031°10'0 0.4
2018-Mar-22 20:00S 29°47' E 031°11'0 0.7
2018-Mar-22 19:30S 29°47' E 031°10'1 2.1
2018-Mar-22 19:01S 29°46' E 031°09'2 3.6
2018-Mar-22 18:31S 29°45' E 031°08'1 1.3
2018-Mar-22 18:00S 29°45' E 031°07'1 1.6
2018-Mar-22 17:31S 29°45' E 031°07'2 4.2
2018-Mar-22 17:01S 29°47' E 031°08'2 5.0
2018-Mar-22 16:31S 29°49' E 031°07'5 9.3
2018-Mar-22 16:00S 29°54' E 031°06'4 8.5
2018-Mar-22 15:31S 29°57' E 031°03'4 8.0
2018-Mar-22 15:00S 30°01' E 031°01'4 7.7
2018-Mar-22 14:31S 30°05' E 030°60'4 7.5
2018-Mar-22 14:00S 30°08' E 030°58'  

Dump ship's entire track history